Marysville, KS

7:09 AM CDT on May 06, 2015 (GMT -0500)
Beatrice Municipal | | Change Station
CLOSE
Current Station
Airport
Location: Beatrice,
Elevation: 1322 ft
Nearby Weather Stations

Elev 1322 ft 40.30 °N, 96.75 °W | Updated 14 minutes ago

Overcast
Overcast
62 °F
Feels Like 62 °F
N
17
Wind Variable Wind from SSE
Gusts 28 mph

Today
High -- | Low -- °F
--% Chance of Precip.
Yesterday
High -- | Low -- °F
Precip. -- in
6:21 AM 8:25 PM
Waning Gibbous, 94% visible
Pressure 29.81 in
Visibility 10.0 miles
Clouds Mostly Cloudy 1400 ft
Overcast 1800 ft
Dew Point 60 °F
Humidity 91%
Rainfall 0.38 in
Snow Depth Not available.
UV 0 out of 12
Pollen 6.70 out of 12
Air Quality Not available.
Flu Activity Sporadic
METAR KBIE 061155Z AUTO 15015G24KT 10SM BKN014 OVC018 17/15 A2981 RMK AO2 60014 70015 T01680153 10180 20165 402490150

More Conditions Fewer Conditions

Pressure 29.81 in
Visibility 10.0 miles
Clouds Mostly Cloudy 1400 ft
Overcast 1800 ft
Dew Point 60 °F
Humidity 91%
Rainfall 0.38 in
Snow Depth Not available.
UV 0 out of 12
Pollen 6.70 out of 12
Air Quality Not available.
Flu Activity Sporadic
METAR KBIE 061155Z AUTO 15015G24KT 10SM BKN014 OVC018 17/15 A2981 RMK AO2 60014 70015 T01680153 10180 20165 402490150

More Conditions Fewer Conditions

10-Day Weather Forecast

Almanac

Astronomy

May. 06, 2015 Rise Set
Actual Time
Civil Twilight
Nautical Twilight
Astronomical Twilight
Moon
Length of Visible Light
Length of Day
Tomorrow will be .
, % of the Moon is Illuminated

Today's Extremes

State Highs State Lows

Community

WunderPhotos

Upload Photos

1,818,882 photos uploaded!

WunderBlogs® & News

Nearby

Air Quality

  Air Quality AQ Index Pollutant
Not available.

Snow Depth

Station Depth Elevation

Earthquake Activity

City Distance Mag. Time & Date
Minimum magnitude displayed is 2.5.

Coastal Water Temperatures

Place Temperature

Stations

Nearby Weather Stations

Station Location Temp. Windchill Dew Point Humidity Wind Precip. Elev Updated Type